createdAt,value
2022-10-06T00:01:09.968Z,86943.19
2022-10-06T00:03:38.579Z,86947.41
2022-10-06T00:06:07.012Z,86948.09
2022-10-06T00:08:37.850Z,86895.97
2022-10-06T00:11:06.222Z,86940.50
2022-10-06T00:13:33.539Z,86939.13
2022-10-06T00:16:00.914Z,86909.91
2022-10-06T00:18:29.765Z,86940.44
2022-10-06T00:20:58.913Z,86904.09
2022-10-06T00:23:26.862Z,86922.34
2022-10-06T00:25:53.777Z,86907.00
2022-10-06T00:28:21.000Z,86896.31
2022-10-06T00:30:48.126Z,86915.19
2022-10-06T00:33:17.920Z,86915.28
2022-10-06T00:35:46.702Z,86901.41
2022-10-06T00:38:16.591Z,86923.72
2022-10-06T00:40:46.991Z,86886.09
2022-10-06T00:44:02.066Z,86917.41
2022-10-06T00:46:46.465Z,86909.81
2022-10-06T00:49:30.823Z,86888.97
2022-10-06T00:52:07.140Z,86906.34
2022-10-06T00:54:36.201Z,86908.41
2022-10-06T00:57:04.986Z,86868.09
2022-10-06T00:59:32.331Z,86895.13
2022-10-06T01:02:08.567Z,86891.63
2022-10-06T01:04:38.608Z,86900.03
2022-10-06T01:07:07.683Z,86902.78
2022-10-06T01:09:36.817Z,86890.38
2022-10-06T01:12:07.443Z,86887.53
2022-10-06T01:14:37.615Z,86872.16
2022-10-06T01:17:23.857Z,86863.78
2022-10-06T01:20:12.890Z,86872.19
2022-10-06T01:22:43.849Z,86861.00
2022-10-06T01:25:14.330Z,86847.16
2022-10-06T01:27:44.572Z,86885.34
2022-10-06T01:30:16.449Z,86886.09
2022-10-06T01:32:44.287Z,86859.75
2022-10-06T01:35:11.686Z,86886.09
2022-10-06T01:37:39.889Z,86877.84
2022-10-06T01:40:07.305Z,86861.81
2022-10-06T01:42:36.534Z,86869.47
2022-10-06T01:45:05.549Z,86843.00
2022-10-06T01:47:34.002Z,86858.28
2022-10-06T01:50:01.223Z,86856.94
2022-10-06T01:52:29.944Z,86870.75
2022-10-06T01:54:57.070Z,86856.09
2022-10-06T01:57:24.632Z,86890.84
2022-10-06T01:59:54.722Z,86879.75
2022-10-06T02:02:23.688Z,86847.06
2022-10-06T02:04:50.810Z,86863.63
2022-10-06T02:07:18.993Z,86852.59
2022-10-06T02:09:46.893Z,86869.16
2022-10-06T02:12:14.864Z,86839.94
2022-10-06T02:14:42.355Z,86887.19
2022-10-06T02:17:10.148Z,86872.81
2022-10-06T02:19:37.067Z,86824.69
2022-10-06T02:22:04.478Z,86860.81
2022-10-06T02:24:31.488Z,86852.47
2022-10-06T02:26:58.676Z,86868.44
2022-10-06T02:29:26.210Z,86858.66
2022-10-06T02:31:55.847Z,86841.28
2022-10-06T02:34:23.768Z,86864.91
2022-10-06T02:36:52.546Z,86874.72
2022-10-06T02:39:19.581Z,86862.16
2022-10-06T02:41:46.749Z,86876.00
2022-10-06T02:44:14.200Z,86832.88
2022-10-06T02:46:43.336Z,86862.66
2022-10-06T02:49:11.315Z,86870.38
2022-10-06T02:51:38.683Z,86854.38
2022-10-06T02:54:05.636Z,86870.38
2022-10-06T02:56:34.594Z,86878.63
2022-10-06T02:59:01.516Z,86882.75
2022-10-06T03:01:32.623Z,86882.75
2022-10-06T03:04:07.324Z,86885.53
2022-10-06T03:06:34.791Z,86893.78
2022-10-06T03:09:09.784Z,86893.78
2022-10-06T03:11:42.861Z,86890.28
2022-10-06T03:14:16.584Z,86888.19
2022-10-06T03:16:46.144Z,86890.91
2022-10-06T03:19:18.976Z,86885.41
2022-10-06T03:21:47.167Z,86865.81
2022-10-06T03:24:14.771Z,86861.69
2022-10-06T03:26:47.706Z,86870.84
2022-10-06T03:29:16.482Z,86871.38
2022-10-06T03:31:48.391Z,86876.97
2022-10-06T03:34:15.674Z,86872.84
2022-10-06T03:36:44.452Z,86858.88
2022-10-06T03:39:12.111Z,86868.66
2022-10-06T03:41:40.028Z,86872.16
2022-10-06T03:44:09.063Z,86822.03
2022-10-06T03:46:38.652Z,86861.78
2022-10-06T03:49:07.289Z,86852.00
2022-10-06T03:51:39.661Z,86860.28
2022-10-06T03:54:11.065Z,86863.81
2022-10-06T03:56:41.798Z,86855.41
2022-10-06T03:59:13.403Z,86860.38
2022-10-06T04:01:45.089Z,86863.84
2022-10-06T04:04:14.836Z,86868.59
2022-10-06T04:06:44.809Z,86858.28
2022-10-06T04:09:16.252Z,86863.09
2022-10-06T04:11:44.797Z,86853.41
2022-10-06T04:14:15.585Z,86855.50
2022-10-06T04:16:45.794Z,86856.84
2022-10-06T04:19:16.292Z,86856.84
2022-10-06T04:21:48.341Z,86835.38
2022-10-06T04:24:19.302Z,86840.88
2022-10-06T04:26:52.459Z,86847.22
2022-10-06T04:29:20.670Z,86835.31
2022-10-06T04:31:54.521Z,86826.25
2022-10-06T04:34:26.648Z,86856.13
2022-10-06T04:36:54.057Z,86834.56
2022-10-06T04:39:21.363Z,86822.81
2022-10-06T04:41:49.119Z,86847.91
2022-10-06T04:44:23.451Z,86847.22
2022-10-06T04:46:52.025Z,86849.28
2022-10-06T04:49:20.859Z,86860.28
2022-10-06T04:51:51.510Z,86822.16
2022-10-06T04:54:19.453Z,86847.91
2022-10-06T04:56:50.052Z,86840.88
2022-10-06T04:59:19.178Z,86833.19
2022-10-06T05:01:48.201Z,86842.81
2022-10-06T05:04:15.189Z,86857.53
2022-10-06T05:06:43.097Z,86854.81
2022-10-06T05:09:16.019Z,86840.88
2022-10-06T05:11:53.043Z,86826.25
2022-10-06T05:14:21.559Z,86852.72
2022-10-06T05:16:49.827Z,86829.75
2022-10-06T05:19:17.083Z,86853.41
2022-10-06T05:21:44.377Z,86861.75
2022-10-06T05:24:18.544Z,86832.56
2022-10-06T05:26:45.689Z,86860.44
2022-10-06T05:29:15.017Z,86820.91
2022-10-06T05:31:43.830Z,86862.63
2022-10-06T05:34:11.773Z,86841.00
2022-10-06T05:36:39.160Z,86860.66
2022-10-06T05:39:07.563Z,86843.91
2022-10-06T05:41:39.711Z,86859.34
2022-10-06T05:44:09.343Z,86856.06
2022-10-06T05:46:38.523Z,86863.75
2022-10-06T05:49:14.795Z,86859.69
2022-10-06T05:52:00.055Z,86858.38
2022-10-06T05:54:29.790Z,86854.38
2022-10-06T05:56:56.775Z,86826.69
2022-10-06T05:59:23.927Z,86855.78
2022-10-06T06:01:53.365Z,86831.00
2022-10-06T06:04:31.809Z,86836.53
2022-10-06T06:06:58.750Z,86856.72
2022-10-06T06:09:28.878Z,86815.16
2022-10-06T06:12:00.489Z,86828.41
2022-10-06T06:15:06.183Z,86837.50
2022-10-06T06:17:38.563Z,86841.78
2022-10-06T06:20:07.186Z,86845.91
2022-10-06T06:22:36.017Z,86859.22
2022-10-06T06:25:05.180Z,86860.59
2022-10-06T06:27:32.352Z,86868.97
2022-10-06T06:29:59.499Z,86844.66
2022-10-06T06:32:28.112Z,86860.72
2022-10-06T06:34:56.010Z,86855.19
2022-10-06T06:37:23.097Z,86856.59
2022-10-06T06:39:50.043Z,86870.56
2022-10-06T06:42:17.736Z,86886.56
2022-10-06T06:44:47.646Z,86866.56
2022-10-06T06:47:26.820Z,86852.66
2022-10-06T06:49:55.082Z,86858.22
2022-10-06T06:52:26.198Z,86881.84
2022-10-06T06:54:53.959Z,86876.44
2022-10-06T06:57:21.203Z,86886.13
2022-10-06T06:59:50.715Z,86855.50
2022-10-06T07:02:18.990Z,86884.78
2022-10-06T07:04:47.750Z,86861.16
2022-10-06T07:07:16.966Z,86880.69
2022-10-06T07:09:43.961Z,86881.44
2022-10-06T07:12:12.708Z,86875.28
2022-10-06T07:15:09.052Z,86856.53
2022-10-06T07:17:58.640Z,86869.09
2022-10-06T07:20:44.169Z,86861.59
2022-10-06T07:23:37.557Z,86862.31
2022-10-06T07:26:07.795Z,86883.25
2022-10-06T07:28:34.818Z,86886.72
2022-10-06T07:31:02.059Z,86856.94
2022-10-06T07:33:32.843Z,86878.47
2022-10-06T07:36:03.757Z,86884.06
2022-10-06T07:38:32.529Z,86849.41
2022-10-06T07:41:19.295Z,86877.19
2022-10-06T07:43:50.869Z,86878.59
2022-10-06T07:46:19.501Z,86879.31
2022-10-06T07:49:06.959Z,86877.94
2022-10-06T07:51:33.975Z,86867.53
2022-10-06T07:54:02.943Z,86862.00
2022-10-06T07:56:40.054Z,86873.09
2022-10-06T07:59:07.212Z,86863.38
2022-10-06T08:01:34.304Z,86843.97
2022-10-06T08:04:02.602Z,86857.84
2022-10-06T08:06:29.666Z,86857.88
2022-10-06T08:08:56.790Z,86873.78
2022-10-06T08:11:24.007Z,86855.06
2022-10-06T08:13:52.274Z,86880.00
2022-10-06T08:16:23.331Z,86849.47
2022-10-06T08:18:54.996Z,86868.81
2022-10-06T08:21:30.863Z,86848.00
2022-10-06T08:23:59.558Z,86842.41
2022-10-06T08:26:28.214Z,86840.31
2022-10-06T08:29:03.344Z,86864.47
2022-10-06T08:31:31.414Z,86872.72
2022-10-06T08:33:58.894Z,86859.50
2022-10-06T08:36:31.335Z,86865.63
2022-10-06T08:38:59.347Z,86862.75
2022-10-06T08:41:32.361Z,86868.94
2022-10-06T08:44:07.687Z,86848.75
2022-10-06T08:46:43.207Z,86863.13
2022-10-06T08:49:20.511Z,86862.34
2022-10-06T08:52:14.446Z,86864.31
2022-10-06T08:54:41.460Z,86860.75
2022-10-06T08:57:19.645Z,86856.50
2022-10-06T08:59:49.634Z,86868.22
2022-10-06T09:02:24.339Z,86860.50
2022-10-06T09:04:51.448Z,86855.47
2022-10-06T09:07:32.301Z,86862.31
2022-10-06T09:10:20.523Z,86855.91
2022-10-06T09:12:51.804Z,86858.59
2022-10-06T09:15:27.836Z,86851.47
2022-10-06T09:18:02.157Z,86859.75
2022-10-06T09:20:43.151Z,86844.38
2022-10-06T09:23:16.941Z,86812.41
2022-10-06T09:25:45.044Z,86845.50
2022-10-06T09:28:16.019Z,86840.56
2022-10-06T09:30:43.739Z,86854.16
2022-10-06T09:33:21.029Z,86830.56
2022-10-06T09:36:10.235Z,86856.00
2022-10-06T09:38:54.568Z,86849.50
2022-10-06T09:41:27.338Z,86848.69
2022-10-06T09:43:57.892Z,86854.09
2022-10-06T09:46:34.399Z,86851.88
2022-10-06T09:49:07.561Z,86848.16
2022-10-06T09:51:36.351Z,86824.75
2022-10-06T09:54:11.160Z,86846.56
2022-10-06T09:56:47.323Z,86848.44
2022-10-06T09:59:34.058Z,86850.47
2022-10-06T10:02:05.122Z,86835.69
2022-10-06T10:04:38.258Z,86848.84
2022-10-06T10:07:16.821Z,86830.72
2022-10-06T10:09:44.342Z,86852.22
2022-10-06T10:12:31.023Z,86833.44
2022-10-06T10:15:25.776Z,86849.88
2022-10-06T10:18:12.801Z,86850.50
2022-10-06T10:20:52.297Z,86847.50
2022-10-06T10:23:31.617Z,86832.88
2022-10-06T10:26:08.237Z,86840.94
2022-10-06T10:29:09.476Z,86825.41
2022-10-06T10:31:42.245Z,86794.84
2022-10-06T10:34:24.683Z,86808.56
2022-10-06T10:36:59.897Z,86824.97
2022-10-06T10:39:26.717Z,86822.03
2022-10-06T10:41:56.965Z,86801.38
2022-10-06T10:44:31.926Z,86817.06
2022-10-06T10:47:06.167Z,86812.00
2022-10-06T10:49:35.389Z,86792.19
2022-10-06T10:52:14.335Z,86816.19
2022-10-06T10:54:53.473Z,86811.78
2022-10-06T10:57:35.287Z,86811.63
2022-10-06T11:00:07.633Z,86784.47
2022-10-06T11:02:35.915Z,86809.84
2022-10-06T11:05:43.216Z,86804.28
2022-10-06T11:08:23.234Z,86805.66
2022-10-06T11:10:57.592Z,86784.81
2022-10-06T11:13:40.913Z,86803.94
2022-10-06T11:16:23.110Z,86799.03
2022-10-06T11:19:24.457Z,86798.34
2022-10-06T11:22:34.677Z,86805.81
2022-10-06T11:25:16.985Z,86795.97
2022-10-06T11:27:51.194Z,86782.13
2022-10-06T11:30:20.245Z,86796.41
2022-10-06T11:33:04.543Z,86796.25
2022-10-06T11:35:37.691Z,86799.19
2022-10-06T11:38:47.670Z,86790.72
2022-10-06T11:41:28.271Z,86779.66
2022-10-06T11:44:00.675Z,86795.94
2022-10-06T11:46:45.062Z,86790.34
2022-10-06T11:49:30.489Z,86786.84
2022-10-06T11:52:24.358Z,86784.66
2022-10-06T11:54:55.117Z,86787.97
2022-10-06T11:57:30.543Z,86792.03
2022-10-06T12:00:16.303Z,86794.88
2022-10-06T12:02:45.687Z,86758.00
2022-10-06T12:05:55.179Z,86780.22
2022-10-06T12:08:00.776Z,86784.06
2022-10-06T12:10:27.635Z,86783.09
2022-10-06T12:13:06.814Z,86780.88
2022-10-06T12:18:43.132Z,86783.56
2022-10-06T12:21:30.494Z,86766.97
2022-10-06T12:24:06.405Z,86778.66
2022-10-06T12:26:44.850Z,86758.25
2022-10-06T12:29:49.206Z,86771.06
2022-10-06T12:32:37.050Z,86765.59
2022-10-06T12:35:25.424Z,86773.13
2022-10-06T12:37:58.503Z,86743.69
2022-10-06T12:40:55.599Z,86778.41
2022-10-06T12:43:22.661Z,86772.94
2022-10-06T12:46:16.889Z,86770.16
2022-10-06T12:49:05.001Z,86773.13
2022-10-06T12:51:38.985Z,86763.22
2022-10-06T12:54:11.695Z,86770.25
2022-10-06T12:56:41.280Z,86755.44
2022-10-06T12:59:40.106Z,86759.50
2022-10-06T13:02:25.830Z,86763.44
2022-10-06T13:04:54.550Z,86768.25
2022-10-06T13:07:22.056Z,86773.59
2022-10-06T13:09:52.472Z,86762.69
2022-10-06T13:12:29.999Z,86771.75
2022-10-06T13:15:34.748Z,86743.47
2022-10-06T13:18:07.643Z,86762.50
2022-10-06T13:20:41.259Z,86749.06
2022-10-06T13:23:30.355Z,86762.59
2022-10-06T13:26:00.170Z,86755.38
2022-10-06T13:28:44.844Z,86747.97
2022-10-06T13:31:35.258Z,86722.59
2022-10-06T13:34:10.204Z,86763.78
2022-10-06T13:36:38.931Z,86768.63
2022-10-06T13:39:24.597Z,86766.19
2022-10-06T13:41:53.649Z,86735.28
2022-10-06T13:44:36.019Z,86766.06
2022-10-06T13:47:07.456Z,86762.41
2022-10-06T13:49:47.436Z,86753.00
2022-10-06T13:52:21.803Z,86753.97
2022-10-06T13:54:58.059Z,86743.28
2022-10-06T13:57:43.547Z,86761.97
2022-10-06T14:00:23.825Z,86750.13
2022-10-06T14:02:54.993Z,86743.25
2022-10-06T14:05:27.042Z,86717.44
2022-10-06T14:08:00.860Z,86758.69
2022-10-06T14:10:31.430Z,86714.00
2022-10-06T14:13:02.386Z,86753.22
2022-10-06T14:15:36.449Z,86747.28
2022-10-06T14:18:05.143Z,86755.47
2022-10-06T14:20:48.196Z,86765.78
2022-10-06T14:23:44.442Z,86763.47
2022-10-06T14:26:14.086Z,86754.72
2022-10-06T14:28:46.729Z,86759.94
2022-10-06T14:31:14.812Z,86766.50
2022-10-06T14:33:42.214Z,86767.88
2022-10-06T14:36:16.960Z,86770.78
2022-10-06T14:38:47.033Z,86775.81
2022-10-06T14:41:18.851Z,86772.34
2022-10-06T14:43:47.622Z,86760.22
2022-10-06T14:46:15.734Z,86767.06
2022-10-06T14:48:42.838Z,86754.91
2022-10-06T14:51:10.585Z,86777.00
2022-10-06T14:53:39.494Z,86780.00
2022-10-06T14:56:10.117Z,86779.31
2022-10-06T14:58:44.278Z,86782.75
2022-10-06T15:01:13.219Z,86784.31
2022-10-06T15:03:41.869Z,86786.69
2022-10-06T15:06:30.120Z,86797.91
2022-10-06T15:08:58.934Z,86788.84
2022-10-06T15:11:28.304Z,86797.38
2022-10-06T15:13:57.397Z,86797.47
2022-10-06T15:16:29.934Z,86807.28
2022-10-06T15:18:59.348Z,86780.88
2022-10-06T15:21:27.400Z,86803.91
2022-10-06T15:23:59.138Z,86786.53
2022-10-06T15:26:45.638Z,86790.72
2022-10-06T15:29:13.837Z,86795.69
2022-10-06T15:31:54.826Z,86799.50
2022-10-06T15:34:25.253Z,86801.44
2022-10-06T15:36:54.096Z,86798.09
2022-10-06T15:39:23.825Z,86790.53
2022-10-06T15:41:51.434Z,86793.44
2022-10-06T15:44:19.729Z,86794.75
2022-10-06T15:47:06.066Z,86772.78
2022-10-06T15:49:38.123Z,86766.16
2022-10-06T15:52:06.489Z,86779.38
2022-10-06T15:54:38.930Z,86804.94
2022-10-06T15:57:13.896Z,86780.91
2022-10-06T15:59:44.160Z,86797.00
2022-10-06T16:02:17.106Z,86808.19
2022-10-06T16:04:45.265Z,86792.34
2022-10-06T16:07:15.269Z,86798.00
2022-10-06T16:09:44.327Z,86808.91
2022-10-06T16:12:14.093Z,86795.88
2022-10-06T16:14:41.075Z,86787.66
2022-10-06T16:17:09.803Z,86797.53
2022-10-06T16:19:37.269Z,86787.53
2022-10-06T16:22:06.463Z,86800.63
2022-10-06T16:24:33.726Z,86781.19
2022-10-06T16:27:01.314Z,86797.84
2022-10-06T16:29:28.569Z,86781.41
2022-10-06T16:31:56.019Z,86800.25
2022-10-06T16:34:23.393Z,86810.75
2022-10-06T16:36:50.326Z,86804.41
2022-10-06T16:39:21.956Z,86805.09
2022-10-06T16:41:50.181Z,86782.91
2022-10-06T16:44:17.802Z,86758.19
2022-10-06T16:46:45.371Z,86804.13
2022-10-06T16:49:12.875Z,86795.13
2022-10-06T16:51:42.237Z,86777.78
2022-10-06T16:54:11.513Z,86780.47
2022-10-06T16:56:41.059Z,86788.84
2022-10-06T16:59:16.716Z,86799.19
2022-10-06T17:01:44.587Z,86780.63
2022-10-06T17:04:20.642Z,86761.22
2022-10-06T17:06:48.730Z,86800.56
2022-10-06T17:09:17.822Z,86811.75
2022-10-06T17:11:47.540Z,86806.25
2022-10-06T17:14:14.535Z,86788.91
2022-10-06T17:16:43.644Z,86794.59
2022-10-06T17:19:12.680Z,86785.53
2022-10-06T17:21:46.265Z,86791.81
2022-10-06T17:24:17.979Z,86808.41
2022-10-06T17:26:48.168Z,86811.22
2022-10-06T17:29:21.521Z,86783.56
2022-10-06T17:31:50.752Z,86816.06
2022-10-06T17:34:23.616Z,86816.13
2022-10-06T17:36:52.752Z,86777.28
2022-10-06T17:39:22.670Z,86809.22
2022-10-06T17:41:52.546Z,86790.44
2022-10-06T17:44:27.003Z,86807.19
2022-10-06T17:46:56.634Z,86812.66
2022-10-06T17:49:24.924Z,86827.97
2022-10-06T17:51:53.776Z,86806.50
2022-10-06T17:54:23.375Z,86812.78
2022-10-06T17:56:53.360Z,86825.25
2022-10-06T17:59:23.402Z,86798.94
2022-10-06T18:01:52.245Z,86813.59
2022-10-06T18:04:19.695Z,86816.41
2022-10-06T18:06:47.886Z,86817.78
2022-10-06T18:09:15.878Z,86828.19
2022-10-06T18:11:44.424Z,86809.53
2022-10-06T18:14:15.375Z,86834.47
2022-10-06T18:16:46.522Z,86836.59
2022-10-06T18:19:25.460Z,86820.00
2022-10-06T18:21:54.691Z,86839.41
2022-10-06T18:24:24.368Z,86842.19
2022-10-06T18:26:53.443Z,86840.81
2022-10-06T18:29:24.242Z,86844.97
2022-10-06T18:31:52.726Z,86854.69
2022-10-06T18:37:07.326Z,86833.94
2022-10-06T18:39:34.307Z,86818.69
2022-10-06T18:42:03.871Z,86824.19
2022-10-06T18:44:49.115Z,86830.50
2022-10-06T18:47:34.367Z,86849.19
2022-10-06T18:50:01.370Z,86850.63
2022-10-06T18:52:28.370Z,86845.03
2022-10-06T18:54:55.341Z,86845.09
2022-10-06T18:57:27.278Z,86846.50
2022-10-06T18:59:55.165Z,86837.50
2022-10-06T19:02:22.409Z,86820.19
2022-10-06T19:04:49.598Z,86832.69
2022-10-06T19:07:16.588Z,86846.56
2022-10-06T19:09:46.434Z,86866.66
2022-10-06T19:12:14.384Z,86859.72
2022-10-06T19:14:47.596Z,86866.00
2022-10-06T19:17:15.501Z,86862.53
2022-10-06T19:19:55.352Z,86868.78
2022-10-06T19:22:24.735Z,86874.34
2022-10-06T19:24:52.640Z,86853.56
2022-10-06T19:27:28.965Z,86877.13
2022-10-06T19:29:56.935Z,86839.75
2022-10-06T19:32:27.421Z,86884.09
2022-10-06T19:34:58.000Z,86851.53
2022-10-06T19:37:27.182Z,86893.84
2022-10-06T19:39:54.320Z,86871.66
2022-10-06T19:42:40.650Z,86882.72
2022-10-06T19:45:09.592Z,86881.38
2022-10-06T19:47:36.597Z,86874.44
2022-10-06T19:50:10.328Z,86849.50
2022-10-06T19:52:38.432Z,86877.22
2022-10-06T19:55:05.748Z,86867.53
2022-10-06T19:57:40.009Z,86877.91
2022-10-06T20:00:07.831Z,86856.41
2022-10-06T20:02:43.159Z,86881.38
2022-10-06T20:05:16.786Z,86871.66
2022-10-06T20:07:46.042Z,86852.97
2022-10-06T20:10:14.262Z,86881.34
2022-10-06T20:12:41.673Z,86881.34
2022-10-06T20:15:10.098Z,86853.59
2022-10-06T20:17:37.847Z,86847.38
2022-10-06T20:20:05.140Z,86875.09
2022-10-06T20:22:32.013Z,86880.66
2022-10-06T20:24:59.029Z,86839.09
2022-10-06T20:27:25.980Z,86873.06
2022-10-06T20:29:53.913Z,86870.28
2022-10-06T20:32:21.511Z,86868.88
2022-10-06T20:34:48.392Z,86873.75
2022-10-06T20:37:15.425Z,86847.38
2022-10-06T20:40:01.081Z,86866.09
2022-10-06T20:42:28.085Z,86852.91
2022-10-06T20:44:55.007Z,86860.56
2022-10-06T20:47:22.755Z,86859.16
2022-10-06T20:49:55.397Z,86845.31
2022-10-06T20:52:25.197Z,86846.03
2022-10-06T20:54:52.141Z,86830.09
2022-10-06T20:57:19.187Z,86848.81
2022-10-06T20:59:46.303Z,86843.28
2022-10-06T21:02:13.534Z,86803.75
2022-10-06T21:04:46.132Z,86825.97
2022-10-06T21:07:13.204Z,86831.50
2022-10-06T21:09:40.443Z,86856.44
2022-10-06T21:12:07.411Z,86832.19
2022-10-06T21:14:35.323Z,86803.78
2022-10-06T21:17:02.223Z,86823.19
2022-10-06T21:19:30.297Z,86838.44
2022-10-06T21:21:57.316Z,86841.22
2022-10-06T21:24:24.419Z,86829.44
2022-10-06T21:26:52.883Z,86823.88
2022-10-06T21:29:20.929Z,86850.91
2022-10-06T21:31:48.454Z,86850.22
2022-10-06T21:34:15.555Z,86818.34
2022-10-06T21:36:43.942Z,86799.63
2022-10-06T21:39:12.159Z,86840.50
2022-10-06T21:41:39.982Z,86845.38
2022-10-06T21:44:06.938Z,86831.50
2022-10-06T21:46:41.671Z,86834.97
2022-10-06T21:49:14.289Z,86814.19
2022-10-06T21:51:42.714Z,86838.41
2022-10-06T21:54:12.410Z,86780.88
2022-10-06T21:56:40.230Z,86814.88
2022-10-06T21:59:07.925Z,86823.19
2022-10-06T22:01:41.366Z,86832.88
2022-10-06T22:04:09.177Z,86831.47
2022-10-06T22:06:37.065Z,86796.16
2022-10-06T22:09:06.046Z,86832.88
2022-10-06T22:11:35.429Z,86832.19
2022-10-06T22:14:05.376Z,86809.28
2022-10-06T22:16:34.463Z,86832.88
2022-10-06T22:19:03.067Z,86839.81
2022-10-06T22:21:32.494Z,86803.06
2022-10-06T22:24:05.714Z,86835.63
2022-10-06T22:26:34.820Z,86805.09
2022-10-06T22:29:01.761Z,86807.84
2022-10-06T22:31:28.842Z,86800.97
2022-10-06T22:33:58.117Z,86815.53
2022-10-06T22:36:26.786Z,86790.59
2022-10-06T22:38:54.701Z,86809.31
2022-10-06T22:41:22.153Z,86796.84
2022-10-06T22:43:49.473Z,86779.47
2022-10-06T22:46:16.447Z,86808.59
2022-10-06T22:48:43.443Z,86798.13
2022-10-06T22:51:10.368Z,86823.09
2022-10-06T22:53:37.352Z,86813.41
2022-10-06T22:56:04.265Z,86815.47
2022-10-06T22:58:31.360Z,86807.84
2022-10-06T23:00:58.327Z,86824.47
2022-10-06T23:03:26.057Z,86778.66
2022-10-06T23:06:00.710Z,86818.09
2022-10-06T23:08:32.673Z,86828.53
2022-10-06T23:11:11.285Z,86824.41
2022-10-06T23:13:38.284Z,86786.88
2022-10-06T23:16:08.305Z,86825.78
2022-10-06T23:18:37.613Z,86821.63
2022-10-06T23:21:11.366Z,86822.97
2022-10-06T23:23:38.301Z,86806.31
2022-10-06T23:26:12.382Z,86809.13
2022-10-06T23:28:40.188Z,86802.78
2022-10-06T23:31:08.954Z,86819.47
2022-10-06T23:33:36.425Z,86815.97
2022-10-06T23:36:14.424Z,86815.34
2022-10-06T23:38:42.448Z,86770.28
2022-10-06T23:41:09.392Z,86778.56
2022-10-06T23:43:36.600Z,86810.53
2022-10-06T23:46:04.278Z,86811.94
2022-10-06T23:48:31.469Z,86791.09
2022-10-06T23:51:02.762Z,86806.34
2022-10-06T23:53:30.964Z,86803.53
2022-10-06T23:55:58.372Z,86782.78
2022-10-06T23:58:26.189Z,86793.88
